sensor_id;sensor_type;location;lat;lon;timestamp;pressure;altitude;pressure_sealevel;temperature;humidity
49393;BME280;35268;42.642;23.308;2023-02-03T00:02:01;94117.84;;;0.82;69.51
49393;BME280;35268;42.642;23.308;2023-02-03T00:04:27;94116.66;;;0.73;70.09
49393;BME280;35268;42.642;23.308;2023-02-03T00:06:52;94122.41;;;0.70;70.65
49393;BME280;35268;42.642;23.308;2023-02-03T00:09:18;94116.00;;;0.60;71.57
49393;BME280;35268;42.642;23.308;2023-02-03T00:11:44;94112.78;;;0.53;72.00
49393;BME280;35268;42.642;23.308;2023-02-03T00:14:10;94124.72;;;0.44;72.48
49393;BME280;35268;42.642;23.308;2023-02-03T00:16:35;94126.00;;;0.42;72.55
49393;BME280;35268;42.642;23.308;2023-02-03T00:19:01;94121.31;;;0.44;72.99
49393;BME280;35268;42.642;23.308;2023-02-03T00:21:26;94111.69;;;0.49;73.73
49393;BME280;35268;42.642;23.308;2023-02-03T00:23:52;94120.03;;;0.46;73.97
49393;BME280;35268;42.642;23.308;2023-02-03T00:26:18;94128.38;;;0.43;74.44
49393;BME280;35268;42.642;23.308;2023-02-03T00:28:44;94111.38;;;0.46;74.58
49393;BME280;35268;42.642;23.308;2023-02-03T00:31:20;94132.59;;;0.44;74.28
49393;BME280;35268;42.642;23.308;2023-02-03T00:33:47;94116.94;;;0.49;74.21
49393;BME280;35268;42.642;23.308;2023-02-03T00:36:17;94118.72;;;0.49;74.02
49393;BME280;35268;42.642;23.308;2023-02-03T00:38:42;94122.22;;;0.54;73.99
49393;BME280;35268;42.642;23.308;2023-02-03T00:41:08;94122.78;;;0.56;72.79
49393;BME280;35268;42.642;23.308;2023-02-03T00:43:33;94134.22;;;0.50;73.32
49393;BME280;35268;42.642;23.308;2023-02-03T00:45:59;94138.69;;;0.50;72.89
49393;BME280;35268;42.642;23.308;2023-02-03T00:48:24;94143.16;;;0.49;70.97
49393;BME280;35268;42.642;23.308;2023-02-03T00:50:49;94136.44;;;0.58;70.77
49393;BME280;35268;42.642;23.308;2023-02-03T00:53:15;94125.38;;;0.56;70.22
49393;BME280;35268;42.642;23.308;2023-02-03T00:55:43;94130.09;;;0.54;69.68
49393;BME280;35268;42.642;23.308;2023-02-03T00:58:09;94150.28;;;0.54;69.75
49393;BME280;35268;42.642;23.308;2023-02-03T01:00:34;94137.41;;;0.52;69.63
49393;BME280;35268;42.642;23.308;2023-02-03T01:03:00;94150.53;;;0.52;70.25
49393;BME280;35268;42.642;23.308;2023-02-03T01:05:25;94152.59;;;0.50;70.58
49393;BME280;35268;42.642;23.308;2023-02-03T01:07:51;94155.78;;;0.52;70.97
49393;BME280;35268;42.642;23.308;2023-02-03T01:10:16;94173.56;;;0.50;72.03
49393;BME280;35268;42.642;23.308;2023-02-03T01:12:41;94162.78;;;0.47;71.70
49393;BME280;35268;42.642;23.308;2023-02-03T01:15:07;94174.97;;;0.36;71.93
49393;BME280;35268;42.642;23.308;2023-02-03T01:17:33;94169.47;;;0.37;71.90
49393;BME280;35268;42.642;23.308;2023-02-03T01:19:58;94151.78;;;0.28;72.18
49393;BME280;35268;42.642;23.308;2023-02-03T01:22:24;94158.84;;;0.27;71.83
49393;BME280;35268;42.642;23.308;2023-02-03T01:24:49;94154.22;;;0.34;71.91
49393;BME280;35268;42.642;23.308;2023-02-03T01:27:15;94159.72;;;0.33;71.43
49393;BME280;35268;42.642;23.308;2023-02-03T01:29:40;94160.31;;;0.40;71.69
49393;BME280;35268;42.642;23.308;2023-02-03T01:32:06;94161.28;;;0.34;71.28
49393;BME280;35268;42.642;23.308;2023-02-03T01:34:31;94150.25;;;0.32;71.39
49393;BME280;35268;42.642;23.308;2023-02-03T01:36:56;94144.97;;;0.27;71.87
49393;BME280;35268;42.642;23.308;2023-02-03T01:39:22;94144.88;;;0.22;72.17
49393;BME280;35268;42.642;23.308;2023-02-03T01:41:47;94156.88;;;0.17;72.42
49393;BME280;35268;42.642;23.308;2023-02-03T01:47:01;94154.50;;;0.16;72.47
49393;BME280;35268;42.642;23.308;2023-02-03T01:49:34;94174.13;;;0.13;72.37
49393;BME280;35268;42.642;23.308;2023-02-03T01:52:00;94179.03;;;0.10;72.27
49393;BME280;35268;42.642;23.308;2023-02-03T01:54:30;94176.28;;;0.16;72.34
49393;BME280;35268;42.642;23.308;2023-02-03T01:57:01;94175.78;;;0.19;72.21
49393;BME280;35268;42.642;23.308;2023-02-03T01:59:27;94188.66;;;0.21;72.25
49393;BME280;35268;42.642;23.308;2023-02-03T02:01:54;94175.78;;;0.19;72.14
49393;BME280;35268;42.642;23.308;2023-02-03T02:04:22;94180.47;;;0.17;72.36
49393;BME280;35268;42.642;23.308;2023-02-03T02:06:50;94181.03;;;0.19;72.64
49393;BME280;35268;42.642;23.308;2023-02-03T02:09:16;94187.59;;;0.22;72.38
49393;BME280;35268;42.642;23.308;2023-02-03T02:11:42;94182.06;;;0.18;72.62
49393;BME280;35268;42.642;23.308;2023-02-03T02:14:08;94187.88;;;0.21;72.20
49393;BME280;35268;42.642;23.308;2023-02-03T02:16:44;94192.06;;;0.22;71.48
49393;BME280;35268;42.642;23.308;2023-02-03T02:33:59;94208.41;;;0.12;71.02
49393;BME280;35268;42.642;23.308;2023-02-03T02:36:31;94207.09;;;0.09;71.29
49393;BME280;35268;42.642;23.308;2023-02-03T02:39:31;94213.03;;;0.05;70.60
49393;BME280;35268;42.642;23.308;2023-02-03T02:42:14;94195.97;;;0.02;70.79
49393;BME280;35268;42.642;23.308;2023-02-03T02:44:52;94207.56;;;0.06;70.91
49393;BME280;35268;42.642;23.308;2023-02-03T02:47:21;94209.63;;;0.04;70.21
49393;BME280;35268;42.642;23.308;2023-02-03T02:49:54;94195.97;;;0.02;70.58
49393;BME280;35268;42.642;23.308;2023-02-03T02:52:24;94194.53;;;0.11;70.34
49393;BME280;35268;42.642;23.308;2023-02-03T02:54:55;94193.50;;;0.12;69.71
49393;BME280;35268;42.642;23.308;2023-02-03T02:57:25;94196.91;;;0.13;69.34
49393;BME280;35268;42.642;23.308;2023-02-03T02:59:52;94205.56;;;0.13;68.55
49393;BME280;35268;42.642;23.308;2023-02-03T03:02:18;94221.63;;;0.17;68.13
49393;BME280;35268;42.642;23.308;2023-02-03T03:04:45;94218.78;;;0.18;68.10
49393;BME280;35268;42.642;23.308;2023-02-03T03:07:20;94221.63;;;0.17;67.39
49393;BME280;35268;42.642;23.308;2023-02-03T03:09:54;94231.16;;;0.06;67.88
49393;BME280;35268;42.642;23.308;2023-02-03T03:12:30;94213.38;;;0.08;68.52
49393;BME280;35268;42.642;23.308;2023-02-03T03:15:07;94229.56;;;0.05;68.56
49393;BME280;35268;42.642;23.308;2023-02-03T03:17:43;94225.59;;;0.03;68.87
49393;BME280;35268;42.642;23.308;2023-02-03T03:20:16;94215.34;;;0.01;67.27
49393;BME280;35268;42.642;23.308;2023-02-03T03:22:47;94226.94;;;0.05;67.20
49393;BME280;35268;42.642;23.308;2023-02-03T03:25:18;94236.41;;;0.06;66.86
49393;BME280;35268;42.642;23.308;2023-02-03T03:27:48;94242.66;;;0.05;66.97
49393;BME280;35268;42.642;23.308;2023-02-03T03:30:18;94244.28;;;0.06;66.24
49393;BME280;35268;42.642;23.308;2023-02-03T03:32:46;94230.34;;;0.06;66.67
49393;BME280;35268;42.642;23.308;2023-02-03T03:35:12;94240.59;;;0.07;66.45
49393;BME280;35268;42.642;23.308;2023-02-03T03:37:44;94229.00;;;0.03;66.87
49393;BME280;35268;42.642;23.308;2023-02-03T03:40:26;94227.50;;;0.07;66.17
49393;BME280;35268;42.642;23.308;2023-02-03T03:45:40;94226.47;;;0.08;66.13
49393;BME280;35268;42.642;23.308;2023-02-03T03:48:18;94228.28;;;0.08;66.99
49393;BME280;35268;42.642;23.308;2023-02-03T03:51:01;94228.22;;;0.03;66.80
49393;BME280;35268;42.642;23.308;2023-02-03T03:53:29;94246.34;;;0.04;66.66
49393;BME280;35268;42.642;23.308;2023-02-03T03:55:59;94250.53;;;0.05;66.08
49393;BME280;35268;42.642;23.308;2023-02-03T03:58:31;94223.75;;;0.03;66.69
49393;BME280;35268;42.642;23.308;2023-02-03T04:01:02;94225.03;;;0.01;67.10
49393;BME280;35268;42.642;23.308;2023-02-03T04:03:34;94228.06;;;-0.08;67.35
49393;BME280;35268;42.642;23.308;2023-02-03T04:06:02;94221.03;;;-0.02;67.67
49393;BME280;35268;42.642;23.308;2023-02-03T04:08:28;94237.66;;;-0.13;67.89
49393;BME280;35268;42.642;23.308;2023-02-03T04:10:53;94229.84;;;-0.08;67.87
49393;BME280;35268;42.642;23.308;2023-02-03T04:13:19;94230.34;;;-0.11;68.11
49393;BME280;35268;42.642;23.308;2023-02-03T04:15:45;94262.03;;;-0.13;68.31
49393;BME280;35268;42.642;23.308;2023-02-03T04:18:12;94245.03;;;-0.10;68.60
49393;BME280;35268;42.642;23.308;2023-02-03T04:20:38;94246.84;;;-0.11;68.37
49393;BME280;35268;42.642;23.308;2023-02-03T04:23:04;94254.94;;;-0.12;68.20
49393;BME280;35268;42.642;23.308;2023-02-03T04:25:29;94251.53;;;-0.13;68.14
49393;BME280;35268;42.642;23.308;2023-02-03T04:27:55;94267.81;;;-0.11;68.24
49393;BME280;35268;42.642;23.308;2023-02-03T04:30:21;94274.34;;;-0.13;68.39
49393;BME280;35268;42.642;23.308;2023-02-03T04:32:46;94296.31;;;-0.14;68.34
49393;BME280;35268;42.642;23.308;2023-02-03T04:35:12;94290.63;;;-0.11;68.53
49393;BME280;35268;42.642;23.308;2023-02-03T04:37:38;94291.72;;;-0.07;68.35
49393;BME280;35268;42.642;23.308;2023-02-03T04:40:03;94292.06;;;-0.04;68.17
49393;BME280;35268;42.642;23.308;2023-02-03T04:42:29;94299.09;;;-0.04;67.94
49393;BME280;35268;42.642;23.308;2023-02-03T04:44:54;94304.34;;;-0.04;68.04
49393;BME280;35268;42.642;23.308;2023-02-03T04:47:20;94299.66;;;-0.02;68.33
49393;BME280;35268;42.642;23.308;2023-02-03T04:49:46;94314.94;;;0.01;68.03
49393;BME280;35268;42.642;23.308;2023-02-03T04:52:11;94313.34;;;0.00;68.20
49393;BME280;35268;42.642;23.308;2023-02-03T04:54:38;94313.91;;;0.02;67.50
49393;BME280;35268;42.642;23.308;2023-02-03T04:57:04;94319.22;;;0.07;68.01
49393;BME280;35268;42.642;23.308;2023-02-03T04:59:30;94321.53;;;0.04;67.70
49393;BME280;35268;42.642;23.308;2023-02-03T05:01:55;94312.09;;;0.03;67.78
49393;BME280;35268;42.642;23.308;2023-02-03T05:04:21;94337.03;;;0.05;67.74
49393;BME280;35268;42.642;23.308;2023-02-03T05:06:46;94327.66;;;0.09;67.23
49393;BME280;35268;42.642;23.308;2023-02-03T05:09:12;94327.75;;;0.14;66.67
49393;BME280;35268;42.642;23.308;2023-02-03T05:11:37;94326.72;;;0.15;66.42
49393;BME280;35268;42.642;23.308;2023-02-03T05:14:03;94335.69;;;0.19;66.94
49393;BME280;35268;42.642;23.308;2023-02-03T05:16:28;94329.44;;;0.21;66.44
49393;BME280;35268;42.642;23.308;2023-02-03T05:18:54;94338.31;;;0.19;66.70
49393;BME280;35268;42.642;23.308;2023-02-03T05:21:19;94345.16;;;0.21;66.67
49393;BME280;35268;42.642;23.308;2023-02-03T05:23:45;94355.72;;;0.26;67.23
49393;BME280;35268;42.642;23.308;2023-02-03T05:26:11;94356.28;;;0.28;66.69
49393;BME280;35268;42.642;23.308;2023-02-03T05:28:36;94354.72;;;0.27;66.96
49393;BME280;35268;42.642;23.308;2023-02-03T05:31:02;94356.75;;;0.25;67.20
49393;BME280;35268;42.642;23.308;2023-02-03T05:33:28;94359.28;;;0.19;67.58
49393;BME280;35268;42.642;23.308;2023-02-03T05:35:53;94361.56;;;0.16;67.85
49393;BME280;35268;42.642;23.308;2023-02-03T05:38:19;94344.16;;;0.10;67.48
49393;BME280;35268;42.642;23.308;2023-02-03T05:40:48;94335.44;;;0.04;68.37
49393;BME280;35268;42.642;23.308;2023-02-03T05:43:33;94352.91;;;-0.02;68.07
49393;BME280;35268;42.642;23.308;2023-02-03T05:46:00;94366.22;;;-0.03;68.46
49393;BME280;35268;42.642;23.308;2023-02-03T05:48:25;94340.47;;;-0.06;67.96
49393;BME280;35268;42.642;23.308;2023-02-03T05:50:51;94353.03;;;-0.08;68.53
49393;BME280;35268;42.642;23.308;2023-02-03T05:53:16;94363.97;;;-0.11;68.33
49393;BME280;35268;42.642;23.308;2023-02-03T05:55:42;94359.19;;;-0.14;68.33
49393;BME280;35268;42.642;23.308;2023-02-03T05:58:07;94359.13;;;-0.19;68.38
49393;BME280;35268;42.642;23.308;2023-02-03T06:00:33;94360.81;;;-0.13;67.95
49393;BME280;35268;42.642;23.308;2023-02-03T06:02:59;94370.16;;;-0.17;67.94
49393;BME280;35268;42.642;23.308;2023-02-03T06:05:27;94368.66;;;-0.13;68.12
49393;BME280;35268;42.642;23.308;2023-02-03T06:07:52;94372.41;;;-0.09;68.03
49393;BME280;35268;42.642;23.308;2023-02-03T06:10:18;94386.66;;;-0.17;68.25
49393;BME280;35268;42.642;23.308;2023-02-03T06:12:44;94382.41;;;-0.06;68.05
49393;BME280;35268;42.642;23.308;2023-02-03T06:15:10;94379.44;;;0.02;67.51
49393;BME280;35268;42.642;23.308;2023-02-03T06:17:36;94386.25;;;0.03;66.89
49393;BME280;35268;42.642;23.308;2023-02-03T06:20:06;94374.19;;;0.02;66.92
49393;BME280;35268;42.642;23.308;2023-02-03T06:22:32;94373.63;;;0.00;66.67
49393;BME280;35268;42.642;23.308;2023-02-03T06:24:58;94384.91;;;0.01;66.03
49393;BME280;35268;42.642;23.308;2023-02-03T06:27:23;94395.16;;;0.02;65.95
49393;BME280;35268;42.642;23.308;2023-02-03T06:29:49;94389.94;;;0.02;65.44
49393;BME280;35268;42.642;23.308;2023-02-03T06:32:14;94368.69;;;0.04;65.00
49393;BME280;35268;42.642;23.308;2023-02-03T06:34:40;94399.47;;;0.08;64.95
49393;BME280;35268;42.642;23.308;2023-02-03T06:37:05;94400.16;;;0.04;64.97
49393;BME280;35268;42.642;23.308;2023-02-03T06:39:31;94382.13;;;0.07;64.27
49393;BME280;35268;42.642;23.308;2023-02-03T06:41:56;94402.72;;;0.15;63.73
49393;BME280;35268;42.642;23.308;2023-02-03T06:44:22;94410.16;;;0.18;63.52
49393;BME280;35268;42.642;23.308;2023-02-03T06:46:47;94420.16;;;0.22;63.60
49393;BME280;35268;42.642;23.308;2023-02-03T06:49:15;94422.31;;;0.25;63.72
49393;BME280;35268;42.642;23.308;2023-02-03T06:51:41;94405.69;;;0.19;63.69
49393;BME280;35268;42.642;23.308;2023-02-03T06:54:07;94416.25;;;0.24;63.96
49393;BME280;35268;42.642;23.308;2023-02-03T06:56:32;94414.28;;;0.31;63.70
49393;BME280;35268;42.642;23.308;2023-02-03T06:58:57;94411.44;;;0.33;63.24
49393;BME280;35268;42.642;23.308;2023-02-03T07:01:23;94394.09;;;0.32;63.05
49393;BME280;35268;42.642;23.308;2023-02-03T07:03:50;94407.06;;;0.38;63.88
49393;BME280;35268;42.642;23.308;2023-02-03T07:06:16;94415.38;;;0.47;63.27
49393;BME280;35268;42.642;23.308;2023-02-03T07:08:41;94415.94;;;0.49;62.29
49393;BME280;35268;42.642;23.308;2023-02-03T07:11:07;94404.88;;;0.47;62.09
49393;BME280;35268;42.642;23.308;2023-02-03T07:13:32;94385.25;;;0.50;62.22
49393;BME280;35268;42.642;23.308;2023-02-03T07:15:58;94402.88;;;0.54;62.29
49393;BME280;35268;42.642;23.308;2023-02-03T07:18:23;94408.47;;;0.58;61.78
49393;BME280;35268;42.642;23.308;2023-02-03T07:20:51;94398.69;;;0.53;61.29
49393;BME280;35268;42.642;23.308;2023-02-03T07:23:17;94398.91;;;0.52;59.74
49393;BME280;35268;42.642;23.308;2023-02-03T07:25:42;94401.88;;;0.55;59.92
49393;BME280;35268;42.642;23.308;2023-02-03T07:28:08;94403.53;;;0.62;60.67
49393;BME280;35268;42.642;23.308;2023-02-03T07:30:33;94410.38;;;0.63;60.73
49393;BME280;35268;42.642;23.308;2023-02-03T07:32:59;94412.75;;;0.64;60.22
49393;BME280;35268;42.642;23.308;2023-02-03T07:35:24;94415.72;;;0.68;59.95
49393;BME280;35268;42.642;23.308;2023-02-03T07:37:51;94417.06;;;0.70;59.87
49393;BME280;35268;42.642;23.308;2023-02-03T07:40:17;94419.91;;;0.69;60.19
49393;BME280;35268;42.642;23.308;2023-02-03T07:42:44;94432.63;;;0.77;60.37
49393;BME280;35268;42.642;23.308;2023-02-03T07:45:12;94455.69;;;0.75;60.19
49393;BME280;35268;42.642;23.308;2023-02-03T07:47:39;94438.03;;;0.70;60.56
49393;BME280;35268;42.642;23.308;2023-02-03T07:50:05;94437.09;;;0.76;60.73
49393;BME280;35268;42.642;23.308;2023-02-03T07:52:30;94429.06;;;0.83;60.55
49393;BME280;35268;42.642;23.308;2023-02-03T07:54:56;94437.59;;;0.90;60.46
49393;BME280;35268;42.642;23.308;2023-02-03T07:57:21;94441.72;;;0.86;60.06
49393;BME280;35268;42.642;23.308;2023-02-03T07:59:47;94448.25;;;0.84;60.11
49393;BME280;35268;42.642;23.308;2023-02-03T08:02:12;94450.63;;;0.85;59.60
49393;BME280;35268;42.642;23.308;2023-02-03T08:04:37;94453.91;;;0.92;59.61
49393;BME280;35268;42.642;23.308;2023-02-03T08:07:03;94460.59;;;1.00;59.45
49393;BME280;35268;42.642;23.308;2023-02-03T08:09:29;94453.00;;;1.04;59.55
49393;BME280;35268;42.642;23.308;2023-02-03T08:11:54;94449.69;;;1.08;59.11
49393;BME280;35268;42.642;23.308;2023-02-03T08:14:20;94479.59;;;1.07;58.41
49393;BME280;35268;42.642;23.308;2023-02-03T08:16:45;94461.88;;;1.14;58.36
49393;BME280;35268;42.642;23.308;2023-02-03T08:19:11;94463.69;;;1.31;59.08
49393;BME280;35268;42.642;23.308;2023-02-03T08:21:37;94459.22;;;1.31;57.97
49393;BME280;35268;42.642;23.308;2023-02-03T08:24:03;94475.22;;;1.30;58.08
49393;BME280;35268;42.642;23.308;2023-02-03T08:26:29;94487.47;;;1.24;57.98
49393;BME280;35268;42.642;23.308;2023-02-03T08:28:54;94460.75;;;1.27;58.30
49393;BME280;35268;42.642;23.308;2023-02-03T08:31:20;94469.72;;;1.31;57.51
49393;BME280;35268;42.642;23.308;2023-02-03T08:33:45;94456.19;;;1.39;57.43
49393;BME280;35268;42.642;23.308;2023-02-03T08:36:11;94480.22;;;1.48;56.87
49393;BME280;35268;42.642;23.308;2023-02-03T08:38:37;94477.03;;;1.46;56.53
49393;BME280;35268;42.642;23.308;2023-02-03T08:41:15;94471.06;;;1.51;56.89
49393;BME280;35268;42.642;23.308;2023-02-03T08:43:42;94484.59;;;1.59;56.57
49393;BME280;35268;42.642;23.308;2023-02-03T08:46:12;94459.59;;;1.57;55.46
49393;BME280;35268;42.642;23.308;2023-02-03T08:48:38;94480.22;;;1.65;56.11
49393;BME280;35268;42.642;23.308;2023-02-03T08:51:14;94506.31;;;1.72;56.32
49393;BME280;35268;42.642;23.308;2023-02-03T08:53:41;94498.44;;;1.72;57.52
49393;BME280;35268;42.642;23.308;2023-02-03T08:56:08;94496.63;;;1.55;57.48
49393;BME280;35268;42.642;23.308;2023-02-03T08:58:34;94515.19;;;1.49;58.21
49393;BME280;35268;42.642;23.308;2023-02-03T09:01:11;94500.94;;;1.45;58.87
49393;BME280;35268;42.642;23.308;2023-02-03T09:03:37;94507.34;;;1.54;59.35
49393;BME280;35268;42.642;23.308;2023-02-03T09:06:03;94511.66;;;1.60;58.73
49393;BME280;35268;42.642;23.308;2023-02-03T09:08:29;94513.25;;;1.61;60.03
49393;BME280;35268;42.642;23.308;2023-02-03T09:10:55;94498.78;;;1.80;59.25
49393;BME280;35268;42.642;23.308;2023-02-03T09:13:20;94485.56;;;1.92;58.84
49393;BME280;35268;42.642;23.308;2023-02-03T09:15:46;94488.50;;;1.96;59.18
49393;BME280;35268;42.642;23.308;2023-02-03T09:18:11;94482.19;;;1.97;58.46
49393;BME280;35268;42.642;23.308;2023-02-03T09:20:37;94472.72;;;1.96;58.81
49393;BME280;35268;42.642;23.308;2023-02-03T09:23:02;94470.88;;;1.96;59.42
49393;BME280;35268;42.642;23.308;2023-02-03T09:25:28;94469.47;;;1.89;58.61
49393;BME280;35268;42.642;23.308;2023-02-03T09:27:53;94471.50;;;1.82;58.17
49393;BME280;35268;42.642;23.308;2023-02-03T09:30:19;94489.53;;;1.95;58.96
49393;BME280;35268;42.642;23.308;2023-02-03T09:32:44;94477.16;;;1.95;58.41
49393;BME280;35268;42.642;23.308;2023-02-03T09:35:13;94473.28;;;1.98;58.19
49393;BME280;35268;42.642;23.308;2023-02-03T09:37:39;94483.13;;;2.08;57.89
49393;BME280;35268;42.642;23.308;2023-02-03T09:40:05;94476.06;;;2.13;58.41
49393;BME280;35268;42.642;23.308;2023-02-03T09:45:22;94520.72;;;2.08;57.05
49393;BME280;35268;42.642;23.308;2023-02-03T09:48:17;94474.16;;;1.87;56.96
49393;BME280;35268;42.642;23.308;2023-02-03T09:50:45;94473.31;;;1.81;58.62
49393;BME280;35268;42.642;23.308;2023-02-03T09:53:36;94475.09;;;1.75;57.72
49393;BME280;35268;42.642;23.308;2023-02-03T09:56:19;94464.88;;;1.79;59.02
49393;BME280;35268;42.642;23.308;2023-02-03T09:58:47;94462.00;;;1.80;58.61
49393;BME280;35268;42.642;23.308;2023-02-03T10:01:13;94448.00;;;1.75;58.89
49393;BME280;35268;42.642;23.308;2023-02-03T10:03:51;94458.63;;;1.85;58.06
49393;BME280;35268;42.642;23.308;2023-02-03T10:11:49;94456.03;;;2.07;56.11
49393;BME280;35268;42.642;23.308;2023-02-03T10:19:56;94454.00;;;2.14;55.28
49393;BME280;35268;42.642;23.308;2023-02-03T10:22:26;94448.00;;;2.19;54.66
49393;BME280;35268;42.642;23.308;2023-02-03T10:25:18;94440.22;;;2.29;55.39
49393;BME280;35268;42.642;23.308;2023-02-03T10:27:44;94449.66;;;2.25;56.21
49393;BME280;35268;42.642;23.308;2023-02-03T10:32:49;94469.84;;;2.19;54.44
49393;BME280;35268;42.642;23.308;2023-02-03T10:35:17;94443.53;;;2.19;54.14
49393;BME280;35268;42.642;23.308;2023-02-03T10:37:55;94435.81;;;2.35;53.73
49393;BME280;35268;42.642;23.308;2023-02-03T10:40:23;94425.59;;;2.38;52.26
49393;BME280;35268;42.642;23.308;2023-02-03T10:42:50;94433.19;;;2.62;52.87
49393;BME280;35268;42.642;23.308;2023-02-03T10:45:36;94440.16;;;2.73;51.64
49393;BME280;35268;42.642;23.308;2023-02-03T10:48:04;94440.25;;;2.84;50.65
49393;BME280;35268;42.642;23.308;2023-02-03T10:50:31;94424.28;;;2.95;50.11
49393;BME280;35268;42.642;23.308;2023-02-03T10:55:43;94432.13;;;2.90;52.00
49393;BME280;35268;42.642;23.308;2023-02-03T10:58:15;94421.13;;;2.93;50.90
49393;BME280;35268;42.642;23.308;2023-02-03T11:00:42;94428.66;;;2.85;50.00
49393;BME280;35268;42.642;23.308;2023-02-03T11:03:28;94420.84;;;2.63;48.62
49393;BME280;35268;42.642;23.308;2023-02-03T11:06:15;94455.94;;;2.46;48.06
49393;BME280;35268;42.642;23.308;2023-02-03T11:08:43;94439.78;;;2.37;47.83
49393;BME280;35268;42.642;23.308;2023-02-03T11:11:14;94442.66;;;2.36;45.90
49393;BME280;35268;42.642;23.308;2023-02-03T11:13:44;94417.97;;;2.37;46.54
49393;BME280;35268;42.642;23.308;2023-02-03T11:16:14;94430.88;;;2.38;46.55
49393;BME280;35268;42.642;23.308;2023-02-03T11:19:06;94446.66;;;2.66;47.76
49393;BME280;35268;42.642;23.308;2023-02-03T11:24:21;94409.66;;;2.77;47.60
49393;BME280;35268;42.642;23.308;2023-02-03T11:29:26;94400.28;;;2.92;50.01
49393;BME280;35268;42.642;23.308;2023-02-03T11:31:54;94394.25;;;2.91;48.14
49393;BME280;35268;42.642;23.308;2023-02-03T11:34:27;94394.34;;;2.74;47.03
49393;BME280;35268;42.642;23.308;2023-02-03T11:36:52;94404.53;;;2.66;45.60
49393;BME280;35268;42.642;23.308;2023-02-03T11:39:25;94395.50;;;2.56;46.88
49393;BME280;35268;42.642;23.308;2023-02-03T11:41:52;94384.97;;;2.84;49.16
49393;BME280;35268;42.642;23.308;2023-02-03T11:44:20;94380.53;;;2.89;47.51
49393;BME280;35268;42.642;23.308;2023-02-03T11:46:52;94374.81;;;2.97;46.89
49393;BME280;35268;42.642;23.308;2023-02-03T11:55:15;94392.47;;;3.02;46.49
49393;BME280;35268;42.642;23.308;2023-02-03T12:00:49;94389.34;;;2.73;47.36
49393;BME280;35268;42.642;23.308;2023-02-03T12:15:14;94394.78;;;2.61;44.66
49393;BME280;35268;42.642;23.308;2023-02-03T12:20:28;94397.50;;;3.04;42.69
49393;BME280;35268;42.642;23.308;2023-02-03T12:23:52;94403.31;;;3.06;43.16
49393;BME280;35268;42.642;23.308;2023-02-03T12:34:27;94405.59;;;2.65;42.90
49393;BME280;35268;42.642;23.308;2023-02-03T12:39:27;94384.56;;;2.70;43.16
49393;BME280;35268;42.642;23.308;2023-02-03T12:47:39;94376.13;;;2.68;43.70
49393;BME280;35268;42.642;23.308;2023-02-03T12:50:17;94373.97;;;2.59;44.49
49393;BME280;35268;42.642;23.308;2023-02-03T12:53:02;94366.41;;;2.68;45.47
49393;BME280;35268;42.642;23.308;2023-02-03T12:58:08;94367.28;;;2.47;44.99
49393;BME280;35268;42.642;23.308;2023-02-03T13:00:37;94356.44;;;2.43;45.51
49393;BME280;35268;42.642;23.308;2023-02-03T13:06:37;94349.56;;;2.37;45.83
49393;BME280;35268;42.642;23.308;2023-02-03T13:10:13;94348.16;;;2.29;46.28
49393;BME280;35268;42.642;23.308;2023-02-03T13:18:04;94346.69;;;2.38;46.68
49393;BME280;35268;42.642;23.308;2023-02-03T13:20:35;94353.31;;;2.46;46.91
49393;BME280;35268;42.642;23.308;2023-02-03T13:23:06;94347.56;;;2.49;47.82
49393;BME280;35268;42.642;23.308;2023-02-03T13:25:49;94342.78;;;2.46;48.21
49393;BME280;35268;42.642;23.308;2023-02-03T13:28:38;94358.66;;;2.24;49.01
49393;BME280;35268;42.642;23.308;2023-02-03T13:44:49;94331.09;;;2.32;49.20
49393;BME280;35268;42.642;23.308;2023-02-03T13:47:27;94338.50;;;2.35;47.72
49393;BME280;35268;42.642;23.308;2023-02-03T13:49:58;94333.00;;;2.41;49.07
49393;BME280;35268;42.642;23.308;2023-02-03T13:52:30;94340.50;;;2.28;49.77
49393;BME280;35268;42.642;23.308;2023-02-03T13:54:58;94344.13;;;2.21;50.71
49393;BME280;35268;42.642;23.308;2023-02-03T13:57:42;94343.31;;;2.16;50.88
49393;BME280;35268;42.642;23.308;2023-02-03T14:00:57;94354.53;;;2.06;51.82
49393;BME280;35268;42.642;23.308;2023-02-03T14:03:40;94348.31;;;1.90;52.18
49393;BME280;35268;42.642;23.308;2023-02-03T14:07:19;94347.94;;;1.82;52.73
49393;BME280;35268;42.642;23.308;2023-02-03T14:09:20;94343.16;;;1.78;52.80
49393;BME280;35268;42.642;23.308;2023-02-03T14:11:48;94332.19;;;1.82;53.23
49393;BME280;35268;42.642;23.308;2023-02-03T14:16:50;94326.09;;;1.81;52.96
49393;BME280;35268;42.642;23.308;2023-02-03T14:21:54;94332.66;;;1.78;51.74
49393;BME280;35268;42.642;23.308;2023-02-03T14:24:21;94339.44;;;1.74;50.08
49393;BME280;35268;42.642;23.308;2023-02-03T14:26:52;94334.44;;;1.73;52.18
49393;BME280;35268;42.642;23.308;2023-02-03T14:29:37;94331.09;;;1.77;51.71
49393;BME280;35268;42.642;23.308;2023-02-03T14:32:10;94330.09;;;1.84;51.99
49393;BME280;35268;42.642;23.308;2023-02-03T14:34:41;94331.69;;;1.85;50.50
49393;BME280;35268;42.642;23.308;2023-02-03T14:37:28;94332.41;;;1.80;50.18
49393;BME280;35268;42.642;23.308;2023-02-03T14:40:13;94347.34;;;1.74;50.46
49393;BME280;35268;42.642;23.308;2023-02-03T14:42:55;94334.50;;;1.78;50.84
49393;BME280;35268;42.642;23.308;2023-02-03T14:51:28;94319.75;;;1.77;49.20
49393;BME280;35268;42.642;23.308;2023-02-03T14:57:03;94324.22;;;1.76;49.86
49393;BME280;35268;42.642;23.308;2023-02-03T14:59:46;94306.38;;;1.78;49.89
49393;BME280;35268;42.642;23.308;2023-02-03T15:02:24;94311.28;;;1.70;50.32
49393;BME280;35268;42.642;23.308;2023-02-03T15:13:03;94282.75;;;1.56;48.81
49393;BME280;35268;42.642;23.308;2023-02-03T15:15:39;94291.59;;;1.50;48.54
49393;BME280;35268;42.642;23.308;2023-02-03T15:18:34;94273.66;;;1.42;48.55
49393;BME280;35268;42.642;23.308;2023-02-03T15:21:04;94261.63;;;1.46;48.82
49393;BME280;35268;42.642;23.308;2023-02-03T15:23:38;94262.44;;;1.47;48.54
49393;BME280;35268;42.642;23.308;2023-02-03T15:26:19;94262.59;;;1.40;48.88